Time;durP1;ratioP1;P1;durP2;ratioP2;P2;SDS_P1;SDS_P2;PMS_P1;PMS_P2;Temp;Humidity;BMP_temperature;BMP_pressure;BME280_temperature;BME280_humidity;BME280_pressure;Samples;Min_cycle;Max_cycle;Signal;HPM_P1;HPM_P2
2021/04/14 00:01:09;;;;;;;1.60;0.80;;;;;;;;;;3565159;40;20413;-74
2021/04/14 00:03:35;;;;;;;1.70;0.82;;;;;;;;;;3565097;40;20395;-75
2021/04/14 00:06:02;;;;;;;2.58;1.23;;;;;;;;;;3565724;40;20658;-74
2021/04/14 00:08:29;;;;;;;1.77;0.98;;;;;;;;;;3555606;40;20412;-74
2021/04/14 00:10:57;;;;;;;2.25;1.48;;;;;;;;;;3555943;40;20404;-74
2021/04/14 00:13:25;;;;;;;2.80;1.38;;;;;;;;;;3566730;40;20410;-73
2021/04/14 00:15:52;;;;;;;1.98;1.23;;;;;;;;;;3566971;40;20785;-74
2021/04/14 00:18:19;;;;;;;2.67;1.60;;;;;;;;;;3565902;40;20348;-74
2021/04/14 00:20:45;;;;;;;2.17;1.27;;;;;;;;;;3565987;40;20356;-73
2021/04/14 00:23:12;;;;;;;1.98;1.33;;;;;;;;;;3566737;40;20368;-72
2021/04/14 00:25:42;;;;;;;2.00;1.53;;;;;;;;;;3555174;40;20452;-73
2021/04/14 00:28:10;;;;;;;3.72;1.48;;;;;;;;;;3567362;40;20438;-74
2021/04/14 00:30:36;;;;;;;1.75;1.20;;;;;;;;;;3566197;40;20371;-74
2021/04/14 00:33:03;;;;;;;2.25;1.42;;;;;;;;;;3556962;40;20350;-75
2021/04/14 00:35:30;;;;;;;1.63;1.20;;;;;;;;;;3557590;40;20361;-75
2021/04/14 00:37:56;;;;;;;2.10;1.08;;;;;;;;;;3548214;40;20413;-74
2021/04/14 00:40:29;;;;;;;2.13;1.35;;;;;;;;;;3558731;40;20352;-75
2021/04/14 00:42:56;;;;;;;1.60;1.40;;;;;;;;;;3559183;40;20383;-75
2021/04/14 00:45:23;;;;;;;1.80;1.30;;;;;;;;;;3558901;40;20401;-74
2021/04/14 00:47:49;;;;;;;2.07;1.40;;;;;;;;;;3549992;40;20541;-74
2021/04/14 00:50:18;;;;;;;2.10;1.30;;;;;;;;;;3538348;40;20733;-74
2021/04/14 00:52:44;;;;;;;2.65;1.42;;;;;;;;;;3518336;41;20430;-74
2021/04/14 00:55:12;;;;;;;2.72;1.55;;;;;;;;;;3519191;41;20387;-75
2021/04/14 00:57:38;;;;;;;2.70;1.42;;;;;;;;;;3518416;41;20380;-75
2021/04/14 01:00:06;;;;;;;1.70;1.40;;;;;;;;;;3539548;40;20377;-75
2021/04/14 01:02:33;;;;;;;1.90;1.30;;;;;;;;;;3573282;23;20446;-70
2021/04/14 01:04:59;;;;;;;1.95;1.20;;;;;;;;;;3557528;40;20406;-71
2021/04/14 01:07:25;;;;;;;2.35;1.33;;;;;;;;;;3559954;40;20725;-70
2021/04/14 01:09:51;;;;;;;2.72;1.30;;;;;;;;;;3559234;40;20387;-69
2021/04/14 01:12:18;;;;;;;1.63;1.45;;;;;;;;;;3548612;40;20406;-70
2021/04/14 01:14:44;;;;;;;2.70;1.50;;;;;;;;;;3554044;40;20392;-69
2021/04/14 01:17:10;;;;;;;2.00;1.30;;;;;;;;;;3558600;40;20381;-68
2021/04/14 01:19:37;;;;;;;3.15;1.75;;;;;;;;;;3548695;40;20399;-70
2021/04/14 01:22:04;;;;;;;2.50;1.80;;;;;;;;;;3558727;40;20390;-70
2021/04/14 01:24:31;;;;;;;1.98;1.23;;;;;;;;;;3560980;40;20412;-74
2021/04/14 01:26:57;;;;;;;1.90;1.40;;;;;;;;;;3561863;40;20375;-70
2021/04/14 01:29:23;;;;;;;2.38;1.48;;;;;;;;;;3557738;40;20756;-70
2021/04/14 01:31:49;;;;;;;2.25;1.67;;;;;;;;;;3555110;40;20430;-70
2021/04/14 01:34:19;;;;;;;2.63;1.43;;;;;;;;;;3557707;40;20440;-69
2021/04/14 01:36:45;;;;;;;2.00;1.30;;;;;;;;;;3557672;40;20484;-70
2021/04/14 01:39:14;;;;;;;1.97;1.60;;;;;;;;;;3549325;40;20617;-69
2021/04/14 01:41:41;;;;;;;1.50;1.40;;;;;;;;;;3558941;40;20395;-70
2021/04/14 01:44:10;;;;;;;1.80;1.30;;;;;;;;;;3557911;40;20407;-70
2021/04/14 01:46:37;;;;;;;2.20;1.20;;;;;;;;;;3557346;40;20403;-69
2021/04/14 01:49:03;;;;;;;1.83;1.40;;;;;;;;;;3557885;40;20706;-70
2021/04/14 01:51:29;;;;;;;2.22;1.33;;;;;;;;;;3556858;40;20735;-69
2021/04/14 01:53:55;;;;;;;1.55;1.05;;;;;;;;;;3553792;40;20395;-71
2021/04/14 01:56:23;;;;;;;2.05;1.30;;;;;;;;;;3559676;40;20375;-70
2021/04/14 01:58:49;;;;;;;2.00;1.10;;;;;;;;;;3544801;40;20411;-69
2021/04/14 02:01:15;;;;;;;1.52;1.42;;;;;;;;;;3557704;40;20376;-69
2021/04/14 02:03:42;;;;;;;1.75;1.17;;;;;;;;;;3557979;40;20407;-70
2021/04/14 02:06:09;;;;;;;1.38;1.10;;;;;;;;;;3558183;40;20408;-70
2021/04/14 02:08:35;;;;;;;2.38;0.90;;;;;;;;;;3557467;40;20415;-70
2021/04/14 02:11:01;;;;;;;2.53;1.00;;;;;;;;;;3548424;40;20388;-70
2021/04/14 02:13:29;;;;;;;1.90;0.90;;;;;;;;;;3558000;40;20383;-70
2021/04/14 02:15:57;;;;;;;1.08;0.80;;;;;;;;;;3557638;40;20403;-69
2021/04/14 02:18:24;;;;;;;1.40;0.85;;;;;;;;;;3557548;40;20750;-74
2021/04/14 02:20:50;;;;;;;1.45;0.80;;;;;;;;;;3557725;40;20402;-75
2021/04/14 02:23:19;;;;;;;1.75;0.82;;;;;;;;;;3557455;40;20390;-69
2021/04/14 02:25:45;;;;;;;2.17;0.80;;;;;;;;;;3557675;40;20699;-70
2021/04/14 02:28:11;;;;;;;2.50;0.90;;;;;;;;;;3557537;40;20391;-69
2021/04/14 02:30:39;;;;;;;2.42;1.02;;;;;;;;;;3557277;40;20391;-71
2021/04/14 02:33:06;;;;;;;1.83;0.80;;;;;;;;;;3557609;40;20485;-70
2021/04/14 02:35:32;;;;;;;1.92;0.90;;;;;;;;;;3557487;40;20884;-69
2021/04/14 02:37:58;;;;;;;2.55;0.90;;;;;;;;;;3556426;40;20411;-69
2021/04/14 02:40:25;;;;;;;1.70;0.88;;;;;;;;;;3557302;40;20757;-70
2021/04/14 02:42:51;;;;;;;0.93;0.80;;;;;;;;;;3557227;40;20398;-70
2021/04/14 02:45:19;;;;;;;2.35;0.80;;;;;;;;;;3557563;40;20742;-70
2021/04/14 02:47:46;;;;;;;1.27;0.80;;;;;;;;;;3557317;40;20665;-70
2021/04/14 02:50:12;;;;;;;2.10;1.00;;;;;;;;;;3548069;40;20419;-71
2021/04/14 02:52:39;;;;;;;2.60;1.43;;;;;;;;;;3559415;40;20417;-70
2021/04/14 02:55:05;;;;;;;2.10;1.33;;;;;;;;;;3557306;40;20390;-70
2021/04/14 02:57:32;;;;;;;1.92;1.00;;;;;;;;;;3556480;40;20382;-77
2021/04/14 02:59:58;;;;;;;2.20;1.38;;;;;;;;;;3557104;40;20394;-70
2021/04/14 03:02:24;;;;;;;1.65;1.10;;;;;;;;;;3556989;40;20426;-70
2021/04/14 03:04:51;;;;;;;0.95;0.85;;;;;;;;;;3557065;40;20399;-70
2021/04/14 03:07:18;;;;;;;2.30;1.00;;;;;;;;;;3557141;40;20438;-70
2021/04/14 03:09:44;;;;;;;1.40;1.20;;;;;;;;;;3557046;40;20387;-70
2021/04/14 03:12:12;;;;;;;2.53;1.20;;;;;;;;;;3547960;40;20402;-71
2021/04/14 03:14:38;;;;;;;2.53;1.10;;;;;;;;;;3557179;40;20388;-70
2021/04/14 03:17:05;;;;;;;1.67;1.15;;;;;;;;;;3557144;40;20684;-70
2021/04/14 03:19:31;;;;;;;1.80;1.00;;;;;;;;;;3557487;40;20371;-75
2021/04/14 03:21:58;;;;;;;1.80;0.90;;;;;;;;;;3557189;40;20379;-70
2021/04/14 03:24:24;;;;;;;1.23;0.90;;;;;;;;;;3555981;40;20423;-70
2021/04/14 03:26:50;;;;;;;2.53;1.20;;;;;;;;;;3557297;40;20472;-71
2021/04/14 03:29:17;;;;;;;1.42;0.80;;;;;;;;;;3557183;40;20379;-70
2021/04/14 03:31:43;;;;;;;2.47;1.17;;;;;;;;;;3556988;40;20391;-70
2021/04/14 03:34:09;;;;;;;2.80;1.30;;;;;;;;;;3557018;40;20394;-70
2021/04/14 03:36:35;;;;;;;2.00;0.90;;;;;;;;;;3556945;40;20375;-70
2021/04/14 03:39:03;;;;;;;1.00;0.75;;;;;;;;;;3556935;40;20380;-69
2021/04/14 03:41:29;;;;;;;2.58;0.70;;;;;;;;;;3556941;40;20431;-71
2021/04/14 03:43:56;;;;;;;1.70;0.80;;;;;;;;;;3562338;40;20766;-71
2021/04/14 03:46:22;;;;;;;2.00;0.75;;;;;;;;;;3557584;40;20427;-71
2021/04/14 03:48:48;;;;;;;1.15;0.80;;;;;;;;;;3556977;40;20371;-70
2021/04/14 03:51:15;;;;;;;1.67;0.88;;;;;;;;;;3556812;40;20379;-71
2021/04/14 03:53:42;;;;;;;1.58;0.80;;;;;;;;;;3556783;40;20480;-70
2021/04/14 03:56:10;;;;;;;1.35;0.90;;;;;;;;;;3559458;40;20447;-70
2021/04/14 03:58:38;;;;;;;1.20;0.70;;;;;;;;;;3556840;40;20394;-71
2021/04/14 04:01:05;;;;;;;2.33;0.98;;;;;;;;;;3556932;40;20371;-72
2021/04/14 04:03:31;;;;;;;2.20;0.90;;;;;;;;;;3556361;40;20441;-73
2021/04/14 04:05:58;;;;;;;2.40;0.90;;;;;;;;;;3556695;40;20761;-74
2021/04/14 04:08:24;;;;;;;1.67;1.40;;;;;;;;;;3557972;40;20395;-74
2021/04/14 04:10:50;;;;;;;2.42;1.00;;;;;;;;;;3556513;40;20395;-70
2021/04/14 04:13:17;;;;;;;2.10;0.88;;;;;;;;;;3556629;40;20376;-71
2021/04/14 04:15:44;;;;;;;2.30;1.00;;;;;;;;;;3556822;40;20443;-70
2021/04/14 04:18:10;;;;;;;1.70;0.85;;;;;;;;;;3556553;40;20392;-73
2021/04/14 04:20:38;;;;;;;2.10;0.80;;;;;;;;;;3563515;40;20418;-71
2021/04/14 04:23:05;;;;;;;1.83;0.90;;;;;;;;;;3556312;40;20390;-70
2021/04/14 04:25:31;;;;;;;1.83;0.90;;;;;;;;;;3562262;40;20405;-71
2021/04/14 04:27:58;;;;;;;2.42;1.10;;;;;;;;;;3556425;40;20386;-70
2021/04/14 04:30:25;;;;;;;2.08;1.02;;;;;;;;;;3556969;40;20391;-71
2021/04/14 04:32:52;;;;;;;1.80;0.88;;;;;;;;;;3556407;40;20407;-70
2021/04/14 04:35:19;;;;;;;1.23;0.80;;;;;;;;;;3556328;40;20818;-70
2021/04/14 04:37:45;;;;;;;1.42;0.80;;;;;;;;;;3556389;40;20392;-70
2021/04/14 04:40:12;;;;;;;2.13;1.00;;;;;;;;;;3556384;40;20399;-70
2021/04/14 04:42:38;;;;;;;1.58;0.90;;;;;;;;;;3556288;40;20395;-69
2021/04/14 04:45:06;;;;;;;0.80;0.80;;;;;;;;;;3558026;40;20800;-70
2021/04/14 04:47:33;;;;;;;2.35;1.00;;;;;;;;;;3555289;40;20406;-70
2021/04/14 04:49:59;;;;;;;1.38;0.82;;;;;;;;;;3556516;40;20390;-70
2021/04/14 04:52:26;;;;;;;1.42;0.70;;;;;;;;;;3556445;40;20457;-70
2021/04/14 04:54:52;;;;;;;1.13;0.90;;;;;;;;;;3556516;40;20383;-71
2021/04/14 04:57:18;;;;;;;1.67;1.00;;;3.00;94.50;;;;;;3556332;40;20764;-70
2021/04/14 04:59:44;;;;;;;2.60;1.10;;;;;;;;;;3556358;40;20644;-73
2021/04/14 05:02:12;;;;;;;1.30;1.00;;;;;;;;;;3558621;40;20443;-73
2021/04/14 05:04:39;;;;;;;2.47;1.20;;;;;;;;;;3556406;40;20668;-74
2021/04/14 05:07:05;;;;;;;1.77;1.07;;;;;;;;;;3555860;40;20399;-72
2021/04/14 05:09:32;;;;;;;1.25;1.00;;;;;;;;;;3556727;40;20477;-73
2021/04/14 05:11:58;;;;;;;2.22;1.20;;;;;;;;;;3555850;40;20858;-73
2021/04/14 05:14:24;;;;;;;1.57;1.00;;;;;;;;;;3546881;40;20522;-73
2021/04/14 05:16:50;;;;;;;2.58;1.30;;;;;;;;;;3555069;40;20493;-73
2021/04/14 05:19:17;;;;;;;2.70;1.10;;;;;;;;;;3556399;40;20402;-75
2021/04/14 05:21:44;;;;;;;3.28;1.77;;;;;;;;;;3557446;40;20804;-73
2021/04/14 05:24:10;;;;;;;4.38;1.60;;;;;;;;;;3557601;40;20668;-73
2021/04/14 05:26:37;;;;;;;1.58;1.00;;;;;;;;;;3558039;40;20383;-73
2021/04/14 05:29:04;;;;;;;4.07;1.10;;;;;;;;;;3557278;40;20394;-72
2021/04/14 05:31:30;;;;;;;3.78;1.20;;;;;;;;;;3556664;40;20395;-72
2021/04/14 05:33:56;;;;;;;6.18;1.70;;;;;;;;;;3557748;40;20393;-72
2021/04/14 05:36:23;;;;;;;1.58;1.17;;;;;;;;;;3558039;40;20516;-73
2021/04/14 05:38:50;;;;;;;1.77;1.33;;;;;;;;;;3556368;40;20407;-73
2021/04/14 05:41:16;;;;;;;3.13;1.30;;;;;;;;;;3557594;40;20526;-77
2021/04/14 05:43:42;;;;;;;1.58;1.40;;;;;;;;;;3557676;40;20399;-73
2021/04/14 05:46:10;;;;;;;2.35;1.38;;;;;;;;;;3557628;40;20398;-73
2021/04/14 05:48:37;;;;;;;2.75;1.58;;;;;;;;;;3557449;40;20386;-74
2021/04/14 05:51:04;;;;;;;2.92;1.42;;;;;;;;;;3557484;40;20462;-74
2021/04/14 05:53:31;;;;;;;2.17;1.25;;;;;;;;;;3557830;40;20368;-73
2021/04/14 05:55:58;;;;;;;2.00;1.30;;;;;;;;;;3557552;40;20375;-73
2021/04/14 05:58:24;;;;;;;2.50;1.30;;;;;;;;;;3557599;40;20684;-72
2021/04/14 06:00:51;;;;;;;4.22;1.30;;;;;;;;;;3557553;40;20388;-73
2021/04/14 06:03:17;;;;;;;2.65;1.20;;;;;;;;;;3548020;40;20422;-72
2021/04/14 06:05:43;;;;;;;2.55;1.55;;;;;;;;;;3557495;40;20469;-71
2021/04/14 06:08:09;;;;;;;2.15;1.70;;;;;;;;;;3557594;40;20403;-74
2021/04/14 06:10:36;;;;;;;2.92;1.60;;;;;;;;;;3548360;40;20773;-70
2021/04/14 06:13:03;;;;;;;1.85;1.40;;;;;;;;;;3557734;40;20465;-70
2021/04/14 06:15:30;;;;;;;2.47;1.80;;;;;;;;;;3557316;40;20383;-71
2021/04/14 06:17:56;;;;;;;2.70;1.70;;;;;;;;;;3557269;40;20383;-70
2021/04/14 06:20:24;;;;;;;2.97;1.70;;;;;;;;;;3557487;40;20384;-72
2021/04/14 06:22:50;;;;;;;3.28;1.70;;;;;;;;;;3557343;40;20473;-71
2021/04/14 06:25:18;;;;;;;3.30;1.45;;;;;;;;;;3557529;40;20465;-71
2021/04/14 06:28:02;;;;;;;3.60;1.40;;;;;;;;;;3557275;40;20483;-70
2021/04/14 06:30:29;;;;;;;2.35;1.20;;;;;;;;;;3557344;40;20380;-70
2021/04/14 06:32:56;;;;;;;2.90;1.45;;;;;;;;;;3557307;40;20395;-71
2021/04/14 06:35:23;;;;;;;3.72;2.00;;;;;;;;;;3557419;40;20641;-71
2021/04/14 06:37:49;;;;;;;2.50;1.70;;;;;;;;;;3557438;40;20387;-70
2021/04/14 06:40:41;;;;;;;3.50;1.70;;;;;;;;;;3557251;40;20407;-70
2021/04/14 06:43:13;;;;;;;3.80;1.65;;;;;;;;;;3557083;40;20364;-69
2021/04/14 06:45:42;;;;;;;3.63;1.88;;;;;;;;;;3557176;40;20660;-70
2021/04/14 06:48:23;;;;;;;4.60;2.00;;;;;;;;;;3557158;40;20397;-69
2021/04/14 06:50:50;;;;;;;4.53;1.73;;;;;;;;;;3557271;40;20759;-69
2021/04/14 06:53:26;;;;;;;3.95;2.10;;;;;;;;;;3557214;40;20768;-69
2021/04/14 06:55:56;;;;;;;2.88;1.92;;;;;;;;;;3556283;40;20895;-70
2021/04/14 06:58:25;;;;;;;2.90;1.80;;;;;;;;;;3557269;40;20484;-70
2021/04/14 07:00:55;;;;;;;3.97;1.98;;;;;;;;;;3557196;40;20368;-70
2021/04/14 07:03:23;;;;;;;3.97;1.90;;;;;;;;;;3556914;40;20570;-70
2021/04/14 07:05:53;;;;;;;3.93;2.00;;;;;;;;;;3556782;40;20414;-70
2021/04/14 07:08:20;;;;;;;3.63;2.00;;;;;;;;;;3556925;40;20416;-72
2021/04/14 07:10:49;;;;;;;3.42;2.03;;;;;;;;;;3557055;40;20380;-70
2021/04/14 07:13:15;;;;;;;6.47;2.20;;;;;;;;;;3557167;40;20391;-71
2021/04/14 07:15:41;;;;;;;4.27;2.50;;;;;;;;;;3557024;40;20371;-71
2021/04/14 07:18:23;;;;;;;2.95;1.80;;;;;;;;;;3557352;40;20395;-71
2021/04/14 07:20:53;;;;;;;4.00;1.63;;;;;;;;;;3557062;40;20388;-70
2021/04/14 07:23:24;;;;;;;2.17;1.27;;;;;;;;;;3547926;40;20450;-70
2021/04/14 07:25:54;;;;;;;3.03;1.33;;;;;;;;;;3557039;40;20372;-70
2021/04/14 07:28:37;;;;;;;3.77;1.40;;;;;;;;;;3547586;40;20407;-70
2021/04/14 07:31:05;;;;;;;1.90;1.15;;;;;;;;;;3556872;40;20465;-70
2021/04/14 07:33:39;;;;;;;3.08;1.15;;;;;;;;;;3551589;40;20447;-70
2021/04/14 07:36:07;;;;;;;1.50;0.88;;;;;;;;;;3547673;40;20406;-72
2021/04/14 07:38:37;;;;;;;1.17;0.90;;;;;;;;;;3556855;40;20451;-70
2021/04/14 07:41:09;;;;;;;1.98;0.80;;;;;;;;;;3556894;40;20384;-70
2021/04/14 07:43:41;;;;;;;1.30;0.70;;;;;;;;;;3543606;40;20407;-70
2021/04/14 07:46:09;;;;;;;1.70;1.00;;;;;;;;;;3547614;40;20418;-71
2021/04/14 07:48:39;;;;;;;1.65;0.85;;;;;;;;;;3547749;40;20399;-71
2021/04/14 07:51:08;;;;;;;2.00;0.87;;;;;;;;;;3556919;40;20419;-71
2021/04/14 07:53:36;;;;;;;1.10;0.82;;;;;;;;;;3556741;40;20395;-71
2021/04/14 07:56:05;;;;;;;2.97;1.02;;;;;;;;;;3556721;40;20438;-70
2021/04/14 07:58:31;;;;;;;2.90;1.35;;;;;;;;;;3556671;40;20718;-71
2021/04/14 08:01:10;;;;;;;2.33;1.30;;;;;;;;;;3556767;40;20383;-71
2021/04/14 08:03:37;;;;;;;2.47;1.17;;;;;;;;;;3556551;40;20423;-71
2021/04/14 08:06:10;;;;;;;2.08;1.65;;;;;;;;;;3556784;40;20481;-70
2021/04/14 08:08:37;;;;;;;2.95;2.50;;;;;;;;;;3556704;40;20386;-71
2021/04/14 08:11:06;;;;;;;3.15;2.15;;;;;;;;;;3556926;40;20749;-71
2021/04/14 08:13:38;;;;;;;3.95;2.90;;;;;;;;;;3557240;40;20378;-72
2021/04/14 08:16:13;;;;;;;3.95;3.05;;;;;;;;;;3558347;40;20368;-71
2021/04/14 08:18:48;;;;;;;4.03;2.95;;;;;;;;;;3547404;40;20399;-71
2021/04/14 08:21:16;;;;;;;4.88;3.20;;;;;;;;;;3561533;40;20402;-71
2021/04/14 08:23:52;;;;;;;4.28;3.50;;;;;;;;;;3556657;40;20402;-70
2021/04/14 08:26:19;;;;;;;4.90;3.53;;;;;;;;;;3556536;40;21371;-71
2021/04/14 08:28:47;;;;;;;4.20;3.20;;;;;;;;;;3556624;40;20391;-71
2021/04/14 08:31:21;;;;;;;4.55;3.33;;;;;;;;;;3556515;40;20414;-70
2021/04/14 08:33:49;;;;;;;3.10;2.78;;;;;;;;;;3556667;40;20379;-71
2021/04/14 08:36:20;;;;;;;3.75;3.33;;;;;;;;;;3547300;40;20411;-71
2021/04/14 08:38:47;;;;;;;3.67;3.22;;;;;;;;;;3556612;40;20452;-71
2021/04/14 08:41:22;;;;;;;3.90;3.50;;;;;;;;;;3556645;40;20477;-70
2021/04/14 08:43:52;;;;;;;3.50;3.20;;;11.40;67.00;;;;;;3552515;40;20404;-71
2021/04/14 08:46:25;;;;;;;3.78;3.47;;;11.90;66.00;;;;;;3556710;40;20394;-70
2021/04/14 08:48:56;;;;;;;3.85;3.47;;;11.90;66.60;;;;;;3552179;40;20371;-70
2021/04/14 08:51:23;;;;;;;4.22;3.63;;;11.40;68.80;;;;;;3557111;40;20495;-70
2021/04/14 08:53:55;;;;;;;4.53;3.30;;;11.50;67.90;;;;;;3556236;40;20780;-71
2021/04/14 08:56:21;;;;;;;3.88;3.45;;;11.70;67.70;;;;;;3557126;40;20401;-70
2021/04/14 08:58:48;;;;;;;4.68;3.72;;;11.90;67.90;;;;;;3558022;40;20760;-71
2021/04/14 09:01:16;;;;;;;4.43;3.75;;;11.90;66.80;;;;;;3557813;40;20375;-71
2021/04/14 09:03:44;;;;;;;5.18;3.75;;;;;;;;;;3557729;40;20403;-70
2021/04/14 09:06:12;;;;;;;4.68;3.58;;;;;;;;;;3556923;40;20448;-70
2021/04/14 09:08:42;;;;;;;4.25;3.30;;;;;;;;;;3558053;40;20442;-70
2021/04/14 09:11:16;;;;;;;3.10;2.80;;;;;;;;;;3557866;40;20391;-70
2021/04/14 09:13:49;;;;;;;3.00;2.70;;;;;;;;;;3558045;40;20379;-70
2021/04/14 09:16:27;;;;;;;2.90;2.55;;;;;;;;;;3557886;40;20375;-71
2021/04/14 09:18:53;;;;;;;3.45;3.13;;;;;;;;;;3557871;40;20363;-70
2021/04/14 09:21:21;;;;;;;3.90;3.08;;;;;;;;;;3558037;40;20399;-70
2021/04/14 09:23:54;;;;;;;3.13;2.93;;;12.40;63.20;;;;;;3557745;40;20403;-70
2021/04/14 09:26:28;;;;;;;4.00;3.15;;;12.40;60.90;;;;;;3558107;40;20394;-70
2021/04/14 09:28:55;;;;;;;2.97;2.67;;;12.70;58.20;;;;;;3557867;40;20773;-70
2021/04/14 09:31:39;;;;;;;3.00;2.80;;;12.70;58.90;;;;;;3557795;40;20383;-70
2021/04/14 09:34:16;;;;;;;4.50;3.55;;;12.50;61.80;;;;;;3557688;40;20374;-72
2021/04/14 09:36:48;;;;;;;2.55;2.35;;;12.30;58.90;;;;;;3557832;40;20372;-70
2021/04/14 09:39:29;;;;;;;4.97;3.10;;;11.80;56.40;;;;;;3557516;40;20727;-70
2021/04/14 09:41:56;;;;;;;4.27;2.80;;;;;;;;;;3557839;40;20434;-71
2021/04/14 09:44:40;;;;;;;3.72;3.08;;;;;;;;;;3561904;40;20416;-70
2021/04/14 09:47:34;;;;;;;2.78;2.10;;;11.80;60.80;;;;;;3557568;40;20376;-71
2021/04/14 09:50:14;;;;;;;2.63;2.35;;;12.00;65.50;;;;;;3557464;40;20665;-70
2021/04/14 09:52:53;;;;;;;3.40;2.80;;;12.40;63.10;;;;;;3548208;40;20466;-71
2021/04/14 09:55:24;;;;;;;2.90;2.60;;;12.70;61.00;;;;;;3550479;40;20407;-71
2021/04/14 09:57:50;;;;;;;2.93;2.63;;;;;;;;;;3557493;40;20379;-70
2021/04/14 10:00:19;;;;;;;2.92;2.63;;;12.10;61.10;;;;;;3557540;40;20419;-70
2021/04/14 10:02:47;;;;;;;3.50;2.63;;;11.90;63.00;;;;;;3564544;40;20532;-70
2021/04/14 10:05:14;;;;;;;2.75;2.55;;;12.30;59.60;;;;;;3557600;40;20394;-69
2021/04/14 10:07:43;;;;;;;3.67;2.70;;;12.80;60.90;;;;;;3557446;40;20915;-70
2021/04/14 10:10:17;;;;;;;2.75;2.10;;;13.30;60.00;;;;;;3548305;40;20407;-71
2021/04/14 10:12:44;;;;;;;3.37;2.60;;;13.40;62.60;;;;;;3557430;40;20660;-70
2021/04/14 10:15:11;;;;;;;2.70;2.50;;;;;;;;;;3557427;40;20788;-70
2021/04/14 10:17:37;;;;;;;3.33;2.35;;;;;;;;;;3564825;40;20391;-70
2021/04/14 10:20:14;;;;;;;2.97;2.55;;;;;;;;;;3557256;40;20681;-69
2021/04/14 10:22:43;;;;;;;2.75;2.50;;;13.30;57.90;;;;;;3557328;40;20395;-70
2021/04/14 10:25:19;;;;;;;2.75;2.25;;;13.10;58.70;;;;;;3557047;40;20534;-69
2021/04/14 10:27:46;;;;;;;3.03;2.72;;;13.70;56.40;;;;;;3557125;40;20364;-71
2021/04/14 10:30:20;;;;;;;3.35;3.05;;;14.20;54.60;;;;;;3556401;40;20395;-70
2021/04/14 10:32:47;;;;;;;2.65;2.28;;;;;;;;;;3556988;40;20436;-70
2021/04/14 10:35:16;;;;;;;2.97;2.70;;;14.40;52.60;;;;;;3557414;40;20387;-71
2021/04/14 10:37:43;;;;;;;2.80;2.60;;;;;;;;;;3557053;40;20409;-71
2021/04/14 10:40:18;;;;;;;2.85;2.58;;;;;;;;;;3557465;40;20375;-70
2021/04/14 10:42:46;;;;;;;2.45;2.25;;;14.20;54.40;;;;;;3557087;40;21555;-70
2021/04/14 10:45:14;;;;;;;2.22;2.03;;;13.80;54.60;;;;;;3556778;40;20415;-70
2021/04/14 10:47:42;;;;;;;3.97;2.65;;;14.30;54.30;;;;;;3556548;40;20676;-70
2021/04/14 10:50:16;;;;;;;3.30;2.80;;;14.50;51.60;;;;;;3556988;40;20399;-71
2021/04/14 10:52:45;;;;;;;2.53;2.20;;;14.40;53.50;;;;;;3563055;40;20434;-70
2021/04/14 10:55:15;;;;;;;3.30;2.97;;;14.30;53.10;;;;;;3556970;40;20446;-70
2021/04/14 10:57:43;;;;;;;3.45;2.60;;;14.30;52.40;;;;;;3555915;40;20379;-70
2021/04/14 11:00:14;;;;;;;4.28;2.50;;;14.20;51.50;;;;;;3562710;40;20385;-71
2021/04/14 11:02:44;;;;;;;4.20;2.53;;;14.30;53.80;;;;;;3561764;40;20502;-70
2021/04/14 11:05:14;;;;;;;3.35;3.05;;;14.20;54.70;;;;;;3562257;40;20756;-70
2021/04/14 11:07:42;;;;;;;3.42;3.00;;;14.00;55.60;;;;;;3564755;40;20381;-70
2021/04/14 11:10:11;;;;;;;3.90;3.05;;;13.30;56.70;;;;;;3552887;40;20406;-71
2021/04/14 11:12:41;;;;;;;3.08;2.78;;;;;;;;;;3555085;40;20409;-70
2021/04/14 11:15:09;;;;;;;5.18;3.50;;;;;;;;;;3554766;40;20763;-74
2021/04/14 11:17:37;;;;;;;3.17;2.90;;;;;;;;;;3550931;40;20740;-70
2021/04/14 11:20:06;;;;;;;5.82;3.90;;;13.00;57.30;;;;;;3566796;40;20414;-70
2021/04/14 11:22:40;;;;;;;14.32;6.78;;;;;;;;;;3561369;40;20411;-70
2021/04/14 11:25:07;;;;;;;5.80;4.15;;;;;;;;;;3564716;40;20388;-71
2021/04/14 11:27:33;;;;;;;4.28;3.88;;;;;;;;;;3562895;40;20395;-71
2021/04/14 11:30:08;;;;;;;5.18;4.03;;;;;;;;;;3564117;40;20385;-70
2021/04/14 11:32:35;;;;;;;4.30;3.90;;;;;;;;;;3553053;40;20553;-71
2021/04/14 11:35:04;;;;;;;3.67;3.38;;;;;;;;;;3554939;40;20857;-70
2021/04/14 11:37:41;;;;;;;3.63;3.33;;;;;;;;;;3562521;40;20402;-70
2021/04/14 11:40:08;;;;;;;3.33;3.03;;;;;;;;;;3560229;40;20779;-70
2021/04/14 11:42:41;;;;;;;4.95;3.15;;;;;;;;;;3560542;40;21312;-69
2021/04/14 11:45:08;;;;;;;3.55;3.25;;;;;;;;;;3560578;40;20414;-75
2021/04/14 11:47:36;;;;;;;3.25;2.95;;;12.70;57.20;;;;;;3563071;40;20394;-70
2021/04/14 11:50:11;;;;;;;4.07;3.78;;;;;;;;;;3553804;40;20679;-71
2021/04/14 11:52:43;;;;;;;4.55;4.13;;;13.20;59.30;;;;;;3553095;40;20402;-69
2021/04/14 11:55:12;;;;;;;4.70;4.30;;;13.50;60.30;;;;;;3563034;40;20401;-70
2021/04/14 11:57:41;;;;;;;4.68;4.10;;;13.60;59.80;;;;;;3560961;40;20456;-69
2021/04/14 12:00:20;;;;;;;4.53;3.95;;;13.70;63.70;;;;;;3560497;40;20507;-70
2021/04/14 12:02:47;;;;;;;4.75;4.25;;;;;;;;;;3557553;40;20401;-70
2021/04/14 12:05:14;;;;;;;3.90;3.50;;;13.90;59.90;;;;;;3541998;40;20413;-71
2021/04/14 12:07:40;;;;;;;3.70;3.40;;;14.00;59.10;;;;;;3550388;40;20394;-70
2021/04/14 12:10:07;;;;;;;3.47;3.08;;;13.70;56.30;;;;;;3550312;40;20409;-69
2021/04/14 12:12:34;;;;;;;4.35;3.22;;;14.10;56.40;;;;;;3546713;40;20400;-71
2021/04/14 12:15:00;;;;;;;3.75;3.45;;;14.40;58.10;;;;;;3547563;40;20405;-70
2021/04/14 12:17:26;;;;;;;3.80;3.40;;;14.40;59.10;;;;;;3549255;40;20391;-71
2021/04/14 12:19:52;;;;;;;3.80;3.30;;;14.70;58.80;;;;;;3545982;40;20432;-69
2021/04/14 12:22:20;;;;;;;4.50;3.47;;;15.10;53.40;;;;;;3554877;40;20469;-70
2021/04/14 12:24:47;;;;;;;4.90;3.90;;;15.00;55.10;;;;;;3552199;40;20832;-70
2021/04/14 12:27:13;;;;;;;3.50;3.20;;;14.30;51.60;;;;;;3551728;40;20395;-71
2021/04/14 12:29:39;;;;;;;3.92;3.53;;;13.90;54.30;;;;;;3554234;40;20383;-70
2021/04/14 12:32:06;;;;;;;3.50;3.17;;;14.10;54.00;;;;;;3550839;40;20400;-71
2021/04/14 12:34:32;;;;;;;3.67;3.25;;;14.40;53.20;;;;;;3546563;40;20498;-70
2021/04/14 12:36:58;;;;;;;4.65;4.10;;;14.30;55.00;;;;;;3548217;40;20389;-70
2021/04/14 12:39:25;;;;;;;3.85;3.47;;;14.30;57.00;;;;;;3547978;40;20396;-70
2021/04/14 12:41:52;;;;;;;4.18;3.78;;;14.30;54.80;;;;;;3546970;40;20413;-71
2021/04/14 12:44:21;;;;;;;3.40;2.72;;;14.10;58.00;;;;;;3547948;40;20428;-70
2021/04/14 12:46:48;;;;;;;4.23;3.60;;;;;;;;;;3548002;40;20400;-70
2021/04/14 12:49:20;;;;;;;3.72;3.42;;;14.30;56.80;;;;;;3548229;40;20475;-69
2021/04/14 12:51:49;;;;;;;3.95;3.58;;;;;;;;;;3548295;40;20744;-71
2021/04/14 12:54:23;;;;;;;5.57;4.40;;;;;;;;;;3548108;40;20481;-71
2021/04/14 12:56:53;;;;;;;4.85;4.40;;;;;;;;;;3546502;40;20380;-71
2021/04/14 12:59:20;;;;;;;4.40;4.00;;;;;;;;;;3548049;40;20395;-70
2021/04/14 13:01:50;;;;;;;4.93;4.10;;;14.30;54.60;;;;;;3547735;40;20389;-71
2021/04/14 13:04:25;;;;;;;3.90;3.58;;;13.90;55.20;;;;;;3555607;40;20655;-70
2021/04/14 13:06:55;;;;;;;5.30;4.53;;;14.30;56.20;;;;;;3557738;40;20900;-70
2021/04/14 13:09:23;;;;;;;5.60;4.95;;;14.50;55.10;;;;;;3548541;40;20839;-70
2021/04/14 13:11:51;;;;;;;5.53;4.88;;;;;;;;;;3556632;40;20398;-69
2021/04/14 13:14:18;;;;;;;6.10;5.10;;;;;;;;;;3557725;40;20379;-71
2021/04/14 13:16:47;;;;;;;4.30;3.90;;;;;;;;;;3557900;40;20402;-70
2021/04/14 13:19:13;;;;;;;5.60;4.75;;;;;;;;;;3557832;40;20430;-70
2021/04/14 13:21:46;;;;;;;5.30;4.80;;;13.60;58.00;;;;;;3557656;40;20379;-70
2021/04/14 13:24:21;;;;;;;5.10;4.70;;;13.40;57.30;;;;;;3556738;40;20390;-70
2021/04/14 13:26:54;;;;;;;5.22;4.72;;;13.20;57.00;;;;;;3557714;40;20709;-71
2021/04/14 13:29:28;;;;;;;4.22;3.83;;;13.10;56.30;;;;;;3556831;40;20386;-70
2021/04/14 13:32:01;;;;;;;4.85;4.30;;;13.20;56.50;;;;;;3557458;40;20781;-70
2021/04/14 13:34:29;;;;;;;6.22;4.70;;;;;;;;;;3556874;40;20367;-71
2021/04/14 13:37:00;;;;;;;5.97;5.20;;;;;;;;;;3557712;40;20450;-71
2021/04/14 13:39:28;;;;;;;5.32;4.82;;;;;;;;;;3557649;40;20390;-70
2021/04/14 13:41:57;;;;;;;5.72;5.13;;;;;;;;;;3547979;40;20403;-71
2021/04/14 13:44:27;;;;;;;5.35;4.85;;;;;;;;;;3557631;40;20394;-70
2021/04/14 13:46:56;;;;;;;6.00;5.00;;;;;;;;;;3548601;40;20677;-71
2021/04/14 13:49:25;;;;;;;5.15;4.43;;;;;;;;;;3548048;40;20403;-70
2021/04/14 13:51:54;;;;;;;6.13;5.00;;;;;;;;;;3557472;40;20407;-71
2021/04/14 13:54:22;;;;;;;5.15;4.43;;;;;;;;;;3557332;40;20755;-69
2021/04/14 13:56:49;;;;;;;5.63;5.13;;;;;;;;;;3548373;40;20414;-71
2021/04/14 13:59:17;;;;;;;5.10;4.60;;;;;;;;;;3557317;40;20387;-71
2021/04/14 14:01:46;;;;;;;5.88;5.38;;;;;;;;;;3557454;40;20379;-70
2021/04/14 14:04:12;;;;;;;5.82;5.20;;;;;;;;;;3557937;40;20403;-71
2021/04/14 14:06:48;;;;;;;5.68;4.45;;;;;;;;;;3548107;40;20485;-70
2021/04/14 14:09:16;;;;;;;4.63;4.22;;;;;;;;;;3548034;40;20410;-70
2021/04/14 14:11:43;;;;;;;6.22;4.88;;;;;;;;;;3557576;40;20375;-70
2021/04/14 14:14:12;;;;;;;4.13;3.72;;;;;;;;;;3557406;40;20392;-70
2021/04/14 14:16:41;;;;;;;4.68;4.18;;;;;;;;;;3563407;40;20366;-70
2021/04/14 14:19:14;;;;;;;4.50;4.10;;;;;;;;;;3558120;40;20636;-70
2021/04/14 14:21:40;;;;;;;5.93;5.10;;;;;;;;;;3557275;40;20400;-70